sensor_id;sensor_type;location;lat;lon;timestamp;P1;durP1;ratioP1;P2;durP2;ratioP2
71456;SDS011;59263;48.160;11.752;2023-12-04T00:02:23;14.20;;;4.27;;
71456;SDS011;59263;48.160;11.752;2023-12-04T00:04:49;10.27;;;3.93;;
71456;SDS011;59263;48.160;11.752;2023-12-04T00:07:14;13.07;;;5.10;;
71456;SDS011;59263;48.160;11.752;2023-12-04T00:09:39;13.50;;;4.63;;
71456;SDS011;59263;48.160;11.752;2023-12-04T00:12:05;12.70;;;4.60;;
71456;SDS011;59263;48.160;11.752;2023-12-04T00:14:30;14.82;;;5.40;;
71456;SDS011;59263;48.160;11.752;2023-12-04T00:16:56;13.40;;;5.37;;
71456;SDS011;59263;48.160;11.752;2023-12-04T00:19:21;15.93;;;5.90;;
71456;SDS011;59263;48.160;11.752;2023-12-04T00:21:46;15.23;;;5.37;;
71456;SDS011;59263;48.160;11.752;2023-12-04T00:24:12;18.03;;;5.53;;
71456;SDS011;59263;48.160;11.752;2023-12-04T00:26:37;14.25;;;5.22;;
71456;SDS011;59263;48.160;11.752;2023-12-04T00:29:03;12.40;;;4.53;;
71456;SDS011;59263;48.160;11.752;2023-12-04T00:31:28;12.63;;;4.70;;
71456;SDS011;59263;48.160;11.752;2023-12-04T00:33:53;12.87;;;4.30;;
71456;SDS011;59263;48.160;11.752;2023-12-04T00:36:19;14.37;;;5.63;;
71456;SDS011;59263;48.160;11.752;2023-12-04T00:38:44;12.95;;;5.03;;
71456;SDS011;59263;48.160;11.752;2023-12-04T00:41:10;11.03;;;4.43;;
71456;SDS011;59263;48.160;11.752;2023-12-04T00:43:36;12.93;;;4.67;;
71456;SDS011;59263;48.160;11.752;2023-12-04T00:46:01;14.68;;;4.85;;
71456;SDS011;59263;48.160;11.752;2023-12-04T00:48:26;11.57;;;3.73;;
71456;SDS011;59263;48.160;11.752;2023-12-04T00:50:52;14.97;;;4.53;;
71456;SDS011;59263;48.160;11.752;2023-12-04T00:53:17;12.83;;;4.93;;
71456;SDS011;59263;48.160;11.752;2023-12-04T00:55:42;12.53;;;4.97;;
71456;SDS011;59263;48.160;11.752;2023-12-04T00:58:08;11.13;;;4.50;;
71456;SDS011;59263;48.160;11.752;2023-12-04T01:00:33;10.93;;;4.25;;
71456;SDS011;59263;48.160;11.752;2023-12-04T01:02:59;10.30;;;3.60;;
71456;SDS011;59263;48.160;11.752;2023-12-04T01:05:24;11.50;;;3.80;;
71456;SDS011;59263;48.160;11.752;2023-12-04T01:07:49;11.40;;;3.97;;
71456;SDS011;59263;48.160;11.752;2023-12-04T01:10:15;13.00;;;4.67;;
71456;SDS011;59263;48.160;11.752;2023-12-04T01:12:40;13.33;;;5.33;;
71456;SDS011;59263;48.160;11.752;2023-12-04T01:15:06;13.75;;;4.70;;
71456;SDS011;59263;48.160;11.752;2023-12-04T01:17:31;12.80;;;4.68;;
71456;SDS011;59263;48.160;11.752;2023-12-04T01:19:57;13.87;;;4.53;;
71456;SDS011;59263;48.160;11.752;2023-12-04T01:22:22;12.45;;;4.40;;
71456;SDS011;59263;48.160;11.752;2023-12-04T01:24:48;10.67;;;3.63;;
71456;SDS011;59263;48.160;11.752;2023-12-04T01:27:13;11.30;;;4.63;;
71456;SDS011;59263;48.160;11.752;2023-12-04T01:29:39;16.88;;;4.88;;
71456;SDS011;59263;48.160;11.752;2023-12-04T01:32:04;17.80;;;6.57;;
71456;SDS011;59263;48.160;11.752;2023-12-04T01:34:30;17.87;;;6.03;;
71456;SDS011;59263;48.160;11.752;2023-12-04T01:36:55;14.53;;;4.90;;
71456;SDS011;59263;48.160;11.752;2023-12-04T01:39:20;13.40;;;5.67;;
71456;SDS011;59263;48.160;11.752;2023-12-04T01:41:46;13.27;;;5.35;;
71456;SDS011;59263;48.160;11.752;2023-12-04T01:44:11;12.60;;;3.90;;
71456;SDS011;59263;48.160;11.752;2023-12-04T01:46:37;12.60;;;4.77;;
71456;SDS011;59263;48.160;11.752;2023-12-04T01:49:02;10.67;;;3.83;;
71456;SDS011;59263;48.160;11.752;2023-12-04T01:51:28;11.32;;;4.10;;
71456;SDS011;59263;48.160;11.752;2023-12-04T01:53:55;8.90;;;3.65;;
71456;SDS011;59263;48.160;11.752;2023-12-04T01:56:24;12.82;;;4.30;;
71456;SDS011;59263;48.160;11.752;2023-12-04T01:58:49;11.80;;;3.90;;
71456;SDS011;59263;48.160;11.752;2023-12-04T02:01:15;11.38;;;3.70;;
71456;SDS011;59263;48.160;11.752;2023-12-04T02:03:40;7.87;;;3.53;;
71456;SDS011;59263;48.160;11.752;2023-12-04T02:06:06;12.77;;;4.32;;
71456;SDS011;59263;48.160;11.752;2023-12-04T02:08:32;8.60;;;3.17;;
71456;SDS011;59263;48.160;11.752;2023-12-04T02:10:58;9.23;;;3.20;;
71456;SDS011;59263;48.160;11.752;2023-12-04T02:13:24;12.13;;;4.35;;
71456;SDS011;59263;48.160;11.752;2023-12-04T02:15:50;9.50;;;3.73;;
71456;SDS011;59263;48.160;11.752;2023-12-04T02:18:18;11.30;;;3.85;;
71456;SDS011;59263;48.160;11.752;2023-12-04T02:20:44;9.88;;;3.35;;
71456;SDS011;59263;48.160;11.752;2023-12-04T02:23:10;8.03;;;2.87;;
71456;SDS011;59263;48.160;11.752;2023-12-04T02:25:35;9.43;;;3.40;;
71456;SDS011;59263;48.160;11.752;2023-12-04T02:28:02;8.93;;;2.72;;
71456;SDS011;59263;48.160;11.752;2023-12-04T02:30:31;11.65;;;3.40;;
71456;SDS011;59263;48.160;11.752;2023-12-04T02:33:01;10.23;;;4.03;;
71456;SDS011;59263;48.160;11.752;2023-12-04T02:35:27;9.57;;;3.17;;
71456;SDS011;59263;48.160;11.752;2023-12-04T02:37:57;11.85;;;4.05;;
71456;SDS011;59263;48.160;11.752;2023-12-04T02:40:23;10.20;;;3.67;;
71456;SDS011;59263;48.160;11.752;2023-12-04T02:42:49;10.18;;;4.07;;
71456;SDS011;59263;48.160;11.752;2023-12-04T02:45:14;12.23;;;4.43;;
71456;SDS011;59263;48.160;11.752;2023-12-04T02:47:40;12.00;;;4.18;;
71456;SDS011;59263;48.160;11.752;2023-12-04T02:50:05;12.57;;;4.93;;
71456;SDS011;59263;48.160;11.752;2023-12-04T02:52:31;10.33;;;4.00;;
71456;SDS011;59263;48.160;11.752;2023-12-04T02:54:56;15.33;;;5.00;;
71456;SDS011;59263;48.160;11.752;2023-12-04T02:57:21;11.77;;;4.03;;
71456;SDS011;59263;48.160;11.752;2023-12-04T02:59:47;11.80;;;4.43;;
71456;SDS011;59263;48.160;11.752;2023-12-04T03:02:13;14.88;;;5.18;;
71456;SDS011;59263;48.160;11.752;2023-12-04T03:04:38;12.07;;;4.23;;
71456;SDS011;59263;48.160;11.752;2023-12-04T03:07:04;11.88;;;4.40;;
71456;SDS011;59263;48.160;11.752;2023-12-04T03:09:29;13.25;;;4.45;;
71456;SDS011;59263;48.160;11.752;2023-12-04T03:11:54;14.20;;;4.63;;
71456;SDS011;59263;48.160;11.752;2023-12-04T03:14:20;12.20;;;3.90;;
71456;SDS011;59263;48.160;11.752;2023-12-04T03:16:45;12.33;;;4.63;;
71456;SDS011;59263;48.160;11.752;2023-12-04T03:19:10;11.43;;;4.80;;
71456;SDS011;59263;48.160;11.752;2023-12-04T03:21:36;11.53;;;4.07;;
71456;SDS011;59263;48.160;11.752;2023-12-04T03:24:01;10.50;;;3.63;;
71456;SDS011;59263;48.160;11.752;2023-12-04T03:26:26;12.57;;;4.53;;
71456;SDS011;59263;48.160;11.752;2023-12-04T03:28:53;11.50;;;4.43;;
71456;SDS011;59263;48.160;11.752;2023-12-04T03:31:18;12.43;;;4.53;;
71456;SDS011;59263;48.160;11.752;2023-12-04T03:33:43;14.10;;;4.40;;
71456;SDS011;59263;48.160;11.752;2023-12-04T03:36:09;14.65;;;4.15;;
71456;SDS011;59263;48.160;11.752;2023-12-04T03:38:34;14.68;;;4.88;;
71456;SDS011;59263;48.160;11.752;2023-12-04T03:41:00;12.63;;;4.27;;
71456;SDS011;59263;48.160;11.752;2023-12-04T03:43:25;14.10;;;4.80;;
71456;SDS011;59263;48.160;11.752;2023-12-04T03:45:51;13.52;;;4.90;;
71456;SDS011;59263;48.160;11.752;2023-12-04T03:48:16;10.57;;;4.00;;
71456;SDS011;59263;48.160;11.752;2023-12-04T03:50:41;13.20;;;4.50;;
71456;SDS011;59263;48.160;11.752;2023-12-04T03:53:07;10.40;;;3.83;;
71456;SDS011;59263;48.160;11.752;2023-12-04T03:55:32;9.70;;;3.37;;
71456;SDS011;59263;48.160;11.752;2023-12-04T03:57:58;10.73;;;3.80;;
71456;SDS011;59263;48.160;11.752;2023-12-04T04:00:24;11.10;;;3.72;;
71456;SDS011;59263;48.160;11.752;2023-12-04T04:02:49;11.37;;;3.50;;
71456;SDS011;59263;48.160;11.752;2023-12-04T04:05:15;11.73;;;3.40;;
71456;SDS011;59263;48.160;11.752;2023-12-04T04:07:40;12.48;;;3.97;;
71456;SDS011;59263;48.160;11.752;2023-12-04T04:10:06;11.33;;;4.07;;
71456;SDS011;59263;48.160;11.752;2023-12-04T04:12:32;13.77;;;4.55;;
71456;SDS011;59263;48.160;11.752;2023-12-04T04:14:58;11.70;;;4.30;;
71456;SDS011;59263;48.160;11.752;2023-12-04T04:17:23;10.43;;;3.72;;
71456;SDS011;59263;48.160;11.752;2023-12-04T04:19:52;13.15;;;4.60;;
71456;SDS011;59263;48.160;11.752;2023-12-04T04:22:19;11.07;;;3.90;;
71456;SDS011;59263;48.160;11.752;2023-12-04T04:24:45;11.25;;;4.13;;
71456;SDS011;59263;48.160;11.752;2023-12-04T04:27:10;10.83;;;3.80;;
71456;SDS011;59263;48.160;11.752;2023-12-04T04:29:35;15.27;;;4.07;;
71456;SDS011;59263;48.160;11.752;2023-12-04T04:32:01;10.45;;;3.85;;
71456;SDS011;59263;48.160;11.752;2023-12-04T04:34:26;10.10;;;3.67;;
71456;SDS011;59263;48.160;11.752;2023-12-04T04:36:51;14.30;;;4.10;;
71456;SDS011;59263;48.160;11.752;2023-12-04T04:39:16;10.97;;;3.60;;
71456;SDS011;59263;48.160;11.752;2023-12-04T04:41:42;12.87;;;3.90;;
71456;SDS011;59263;48.160;11.752;2023-12-04T04:44:08;11.30;;;4.05;;
71456;SDS011;59263;48.160;11.752;2023-12-04T04:46:34;12.93;;;4.33;;
71456;SDS011;59263;48.160;11.752;2023-12-04T04:48:59;12.47;;;3.90;;
71456;SDS011;59263;48.160;11.752;2023-12-04T04:51:24;11.80;;;4.20;;
71456;SDS011;59263;48.160;11.752;2023-12-04T04:53:50;12.10;;;4.03;;
71456;SDS011;59263;48.160;11.752;2023-12-04T04:56:15;12.37;;;4.87;;
71456;SDS011;59263;48.160;11.752;2023-12-04T04:58:40;13.43;;;4.03;;
71456;SDS011;59263;48.160;11.752;2023-12-04T05:01:06;10.87;;;3.40;;
71456;SDS011;59263;48.160;11.752;2023-12-04T05:03:33;10.30;;;3.97;;
71456;SDS011;59263;48.160;11.752;2023-12-04T05:05:58;11.50;;;3.87;;
71456;SDS011;59263;48.160;11.752;2023-12-04T05:08:23;10.17;;;3.33;;
71456;SDS011;59263;48.160;11.752;2023-12-04T05:10:49;11.13;;;4.17;;
71456;SDS011;59263;48.160;11.752;2023-12-04T05:13:14;11.53;;;4.50;;
71456;SDS011;59263;48.160;11.752;2023-12-04T05:15:39;10.27;;;3.87;;
71456;SDS011;59263;48.160;11.752;2023-12-04T05:18:05;11.93;;;3.97;;
71456;SDS011;59263;48.160;11.752;2023-12-04T05:20:30;10.35;;;4.40;;
71456;SDS011;59263;48.160;11.752;2023-12-04T05:22:56;16.83;;;5.07;;
71456;SDS011;59263;48.160;11.752;2023-12-04T05:25:22;11.98;;;4.78;;
71456;SDS011;59263;48.160;11.752;2023-12-04T05:27:47;15.00;;;5.63;;
71456;SDS011;59263;48.160;11.752;2023-12-04T05:30:13;15.23;;;5.50;;
71456;SDS011;59263;48.160;11.752;2023-12-04T05:32:38;14.87;;;4.30;;
71456;SDS011;59263;48.160;11.752;2023-12-04T05:35:04;12.40;;;4.60;;
71456;SDS011;59263;48.160;11.752;2023-12-04T05:37:29;13.60;;;4.93;;
71456;SDS011;59263;48.160;11.752;2023-12-04T05:39:55;13.40;;;4.90;;
71456;SDS011;59263;48.160;11.752;2023-12-04T05:42:20;20.77;;;7.43;;
71456;SDS011;59263;48.160;11.752;2023-12-04T05:44:46;18.92;;;6.45;;
71456;SDS011;59263;48.160;11.752;2023-12-04T05:47:11;16.53;;;6.47;;
71456;SDS011;59263;48.160;11.752;2023-12-04T05:49:37;18.30;;;6.80;;
71456;SDS011;59263;48.160;11.752;2023-12-04T05:52:02;15.73;;;5.47;;
71456;SDS011;59263;48.160;11.752;2023-12-04T05:54:27;12.23;;;4.83;;
71456;SDS011;59263;48.160;11.752;2023-12-04T05:56:53;16.33;;;5.60;;
71456;SDS011;59263;48.160;11.752;2023-12-04T05:59:18;15.47;;;5.07;;
71456;SDS011;59263;48.160;11.752;2023-12-04T06:01:43;16.95;;;5.65;;
71456;SDS011;59263;48.160;11.752;2023-12-04T06:04:09;13.27;;;5.20;;
71456;SDS011;59263;48.160;11.752;2023-12-04T06:06:34;15.70;;;5.17;;
71456;SDS011;59263;48.160;11.752;2023-12-04T06:08:59;15.47;;;5.00;;
71456;SDS011;59263;48.160;11.752;2023-12-04T06:11:25;14.17;;;4.40;;
71456;SDS011;59263;48.160;11.752;2023-12-04T06:13:50;13.40;;;5.33;;
71456;SDS011;59263;48.160;11.752;2023-12-04T06:16:15;11.67;;;4.13;;
71456;SDS011;59263;48.160;11.752;2023-12-04T06:18:41;16.33;;;5.17;;
71456;SDS011;59263;48.160;11.752;2023-12-04T06:21:06;12.52;;;4.43;;
71456;SDS011;59263;48.160;11.752;2023-12-04T06:23:32;14.27;;;5.15;;
71456;SDS011;59263;48.160;11.752;2023-12-04T06:25:57;13.13;;;4.70;;
71456;SDS011;59263;48.160;11.752;2023-12-04T06:28:23;14.15;;;5.03;;
71456;SDS011;59263;48.160;11.752;2023-12-04T06:30:49;13.97;;;4.53;;
71456;SDS011;59263;48.160;11.752;2023-12-04T06:33:15;14.95;;;5.47;;
71456;SDS011;59263;48.160;11.752;2023-12-04T06:35:43;11.67;;;4.13;;
71456;SDS011;59263;48.160;11.752;2023-12-04T06:38:08;12.35;;;4.55;;
71456;SDS011;59263;48.160;11.752;2023-12-04T06:40:39;14.25;;;5.30;;
71456;SDS011;59263;48.160;11.752;2023-12-04T06:43:05;14.70;;;6.30;;
71456;SDS011;59263;48.160;11.752;2023-12-04T06:45:31;16.83;;;7.25;;
71456;SDS011;59263;48.160;11.752;2023-12-04T06:47:58;15.07;;;6.03;;
71456;SDS011;59263;48.160;11.752;2023-12-04T06:50:24;14.35;;;5.30;;
71456;SDS011;59263;48.160;11.752;2023-12-04T06:52:49;10.73;;;4.27;;
71456;SDS011;59263;48.160;11.752;2023-12-04T06:55:15;13.83;;;5.50;;
71456;SDS011;59263;48.160;11.752;2023-12-04T06:57:40;13.95;;;5.38;;
71456;SDS011;59263;48.160;11.752;2023-12-04T07:00:06;14.67;;;5.57;;
71456;SDS011;59263;48.160;11.752;2023-12-04T07:02:33;16.58;;;7.00;;
71456;SDS011;59263;48.160;11.752;2023-12-04T07:04:58;19.33;;;7.83;;
71456;SDS011;59263;48.160;11.752;2023-12-04T07:07:24;15.73;;;5.87;;
71456;SDS011;59263;48.160;11.752;2023-12-04T07:09:49;15.63;;;5.40;;
71456;SDS011;59263;48.160;11.752;2023-12-04T07:12:14;12.32;;;4.68;;
71456;SDS011;59263;48.160;11.752;2023-12-04T07:14:40;14.77;;;5.47;;
71456;SDS011;59263;48.160;11.752;2023-12-04T07:17:05;13.20;;;4.80;;
71456;SDS011;59263;48.160;11.752;2023-12-04T07:19:31;13.30;;;4.30;;
71456;SDS011;59263;48.160;11.752;2023-12-04T07:21:59;16.02;;;5.65;;
71456;SDS011;59263;48.160;11.752;2023-12-04T07:24:25;15.17;;;5.23;;
71456;SDS011;59263;48.160;11.752;2023-12-04T07:26:51;14.43;;;5.40;;
71456;SDS011;59263;48.160;11.752;2023-12-04T07:29:16;14.07;;;4.97;;
71456;SDS011;59263;48.160;11.752;2023-12-04T07:31:42;15.80;;;5.97;;
71456;SDS011;59263;48.160;11.752;2023-12-04T07:34:07;17.93;;;6.33;;
71456;SDS011;59263;48.160;11.752;2023-12-04T07:36:32;19.17;;;6.20;;
71456;SDS011;59263;48.160;11.752;2023-12-04T07:38:58;13.20;;;4.78;;
71456;SDS011;59263;48.160;11.752;2023-12-04T07:41:23;13.90;;;5.13;;
71456;SDS011;59263;48.160;11.752;2023-12-04T07:43:48;13.80;;;4.93;;
71456;SDS011;59263;48.160;11.752;2023-12-04T07:46:14;14.23;;;5.20;;
71456;SDS011;59263;48.160;11.752;2023-12-04T07:48:40;13.80;;;5.28;;
71456;SDS011;59263;48.160;11.752;2023-12-04T07:51:05;15.53;;;4.57;;
71456;SDS011;59263;48.160;11.752;2023-12-04T07:53:32;16.50;;;4.67;;
71456;SDS011;59263;48.160;11.752;2023-12-04T07:56:00;14.70;;;4.82;;
71456;SDS011;59263;48.160;11.752;2023-12-04T07:58:28;15.23;;;6.03;;
71456;SDS011;59263;48.160;11.752;2023-12-04T08:00:53;15.20;;;5.30;;
71456;SDS011;59263;48.160;11.752;2023-12-04T08:03:19;16.93;;;5.17;;
71456;SDS011;59263;48.160;11.752;2023-12-04T08:05:44;14.13;;;5.20;;
71456;SDS011;59263;48.160;11.752;2023-12-04T08:08:09;16.03;;;5.50;;
71456;SDS011;59263;48.160;11.752;2023-12-04T08:10:34;14.17;;;4.67;;
71456;SDS011;59263;48.160;11.752;2023-12-04T08:13:00;14.57;;;4.97;;
71456;SDS011;59263;48.160;11.752;2023-12-04T08:15:25;11.77;;;4.53;;
71456;SDS011;59263;48.160;11.752;2023-12-04T08:17:51;11.47;;;4.67;;
71456;SDS011;59263;48.160;11.752;2023-12-04T08:20:16;12.00;;;4.50;;
71456;SDS011;59263;48.160;11.752;2023-12-04T08:22:42;17.20;;;4.57;;
71456;SDS011;59263;48.160;11.752;2023-12-04T08:25:09;13.43;;;4.00;;
71456;SDS011;59263;48.160;11.752;2023-12-04T08:27:35;16.08;;;4.50;;
71456;SDS011;59263;48.160;11.752;2023-12-04T08:30:01;13.43;;;4.63;;
71456;SDS011;59263;48.160;11.752;2023-12-04T08:32:28;13.15;;;5.30;;
71456;SDS011;59263;48.160;11.752;2023-12-04T08:34:53;9.13;;;3.97;;
71456;SDS011;59263;48.160;11.752;2023-12-04T08:37:19;11.07;;;4.38;;
71456;SDS011;59263;48.160;11.752;2023-12-04T08:39:45;8.53;;;3.40;;
71456;SDS011;59263;48.160;11.752;2023-12-04T08:42:11;15.07;;;4.82;;
71456;SDS011;59263;48.160;11.752;2023-12-04T08:44:36;11.27;;;3.72;;
71456;SDS011;59263;48.160;11.752;2023-12-04T08:47:02;10.80;;;3.33;;
71456;SDS011;59263;48.160;11.752;2023-12-04T08:49:27;13.27;;;3.92;;
71456;SDS011;59263;48.160;11.752;2023-12-04T08:51:53;11.17;;;4.23;;
71456;SDS011;59263;48.160;11.752;2023-12-04T08:54:18;11.40;;;3.70;;
71456;SDS011;59263;48.160;11.752;2023-12-04T08:56:44;9.13;;;3.00;;
71456;SDS011;59263;48.160;11.752;2023-12-04T08:59:09;12.30;;;3.35;;
71456;SDS011;59263;48.160;11.752;2023-12-04T09:01:35;11.57;;;3.30;;
71456;SDS011;59263;48.160;11.752;2023-12-04T09:04:01;10.90;;;3.33;;
71456;SDS011;59263;48.160;11.752;2023-12-04T09:06:26;10.57;;;3.47;;
71456;SDS011;59263;48.160;11.752;2023-12-04T09:08:52;8.00;;;2.73;;
71456;SDS011;59263;48.160;11.752;2023-12-04T09:11:17;11.07;;;3.23;;
71456;SDS011;59263;48.160;11.752;2023-12-04T09:13:42;10.77;;;3.67;;
71456;SDS011;59263;48.160;11.752;2023-12-04T09:16:08;10.18;;;3.45;;
71456;SDS011;59263;48.160;11.752;2023-12-04T09:18:34;13.33;;;3.53;;
71456;SDS011;59263;48.160;11.752;2023-12-04T09:20:59;11.80;;;4.20;;
71456;SDS011;59263;48.160;11.752;2023-12-04T09:23:24;10.38;;;3.20;;
71456;SDS011;59263;48.160;11.752;2023-12-04T09:25:50;10.13;;;4.10;;
71456;SDS011;59263;48.160;11.752;2023-12-04T09:28:15;10.40;;;3.30;;
71456;SDS011;59263;48.160;11.752;2023-12-04T09:30:41;11.80;;;4.07;;
71456;SDS011;59263;48.160;11.752;2023-12-04T09:33:06;11.55;;;3.85;;
71456;SDS011;59263;48.160;11.752;2023-12-04T09:35:32;12.17;;;4.00;;
71456;SDS011;59263;48.160;11.752;2023-12-04T09:37:57;15.07;;;4.13;;
71456;SDS011;59263;48.160;11.752;2023-12-04T09:40:23;16.45;;;6.07;;
71456;SDS011;59263;48.160;11.752;2023-12-04T09:42:49;13.93;;;5.53;;
71456;SDS011;59263;48.160;11.752;2023-12-04T09:45:14;15.83;;;4.90;;
71456;SDS011;59263;48.160;11.752;2023-12-04T09:47:40;16.35;;;5.78;;
71456;SDS011;59263;48.160;11.752;2023-12-04T09:50:07;17.63;;;6.15;;
71456;SDS011;59263;48.160;11.752;2023-12-04T09:52:34;14.15;;;5.25;;
71456;SDS011;59263;48.160;11.752;2023-12-04T09:55:00;15.23;;;5.83;;
71456;SDS011;59263;48.160;11.752;2023-12-04T09:57:26;11.80;;;5.03;;
71456;SDS011;59263;48.160;11.752;2023-12-04T09:59:51;11.50;;;4.37;;
71456;SDS011;59263;48.160;11.752;2023-12-04T10:02:18;14.05;;;4.75;;
71456;SDS011;59263;48.160;11.752;2023-12-04T10:04:44;16.98;;;5.28;;
71456;SDS011;59263;48.160;11.752;2023-12-04T10:07:10;14.23;;;5.57;;
71456;SDS011;59263;48.160;11.752;2023-12-04T10:09:36;12.43;;;4.70;;
71456;SDS011;59263;48.160;11.752;2023-12-04T10:12:01;13.20;;;4.67;;
71456;SDS011;59263;48.160;11.752;2023-12-04T10:14:27;11.43;;;5.27;;
71456;SDS011;59263;48.160;11.752;2023-12-04T10:16:52;14.17;;;5.23;;
71456;SDS011;59263;48.160;11.752;2023-12-04T10:19:21;16.25;;;5.72;;
71456;SDS011;59263;48.160;11.752;2023-12-04T10:21:54;16.27;;;5.28;;
71456;SDS011;59263;48.160;11.752;2023-12-04T10:24:27;15.52;;;5.00;;
71456;SDS011;59263;48.160;11.752;2023-12-04T10:26:53;10.90;;;4.20;;
71456;SDS011;59263;48.160;11.752;2023-12-04T10:29:18;13.10;;;5.22;;
71456;SDS011;59263;48.160;11.752;2023-12-04T10:31:44;13.50;;;4.90;;
71456;SDS011;59263;48.160;11.752;2023-12-04T10:34:09;14.57;;;5.63;;
71456;SDS011;59263;48.160;11.752;2023-12-04T10:36:35;13.87;;;5.77;;
71456;SDS011;59263;48.160;11.752;2023-12-04T10:39:01;14.82;;;5.43;;
71456;SDS011;59263;48.160;11.752;2023-12-04T10:41:30;14.82;;;5.63;;
71456;SDS011;59263;48.160;11.752;2023-12-04T10:43:56;14.40;;;5.47;;
71456;SDS011;59263;48.160;11.752;2023-12-04T10:46:23;13.20;;;5.53;;
71456;SDS011;59263;48.160;11.752;2023-12-04T10:48:49;15.48;;;6.18;;
71456;SDS011;59263;48.160;11.752;2023-12-04T10:51:15;14.50;;;5.40;;
71456;SDS011;59263;48.160;11.752;2023-12-04T10:53:42;15.32;;;5.65;;
71456;SDS011;59263;48.160;11.752;2023-12-04T10:56:09;14.48;;;5.78;;
71456;SDS011;59263;48.160;11.752;2023-12-04T10:58:38;15.57;;;5.72;;
71456;SDS011;59263;48.160;11.752;2023-12-04T11:01:06;11.70;;;4.87;;
71456;SDS011;59263;48.160;11.752;2023-12-04T11:03:40;13.50;;;4.78;;
71456;SDS011;59263;48.160;11.752;2023-12-04T11:06:08;12.05;;;4.90;;
71456;SDS011;59263;48.160;11.752;2023-12-04T11:08:37;10.07;;;4.28;;
71456;SDS011;59263;48.160;11.752;2023-12-04T11:11:08;11.25;;;4.78;;
71456;SDS011;59263;48.160;11.752;2023-12-04T11:13:39;15.77;;;5.27;;
71456;SDS011;59263;48.160;11.752;2023-12-04T11:22:09;18.92;;;6.28;;
71456;SDS011;59263;48.160;11.752;2023-12-04T11:24:36;14.25;;;5.15;;
71456;SDS011;59263;48.160;11.752;2023-12-04T11:27:02;13.23;;;5.10;;
71456;SDS011;59263;48.160;11.752;2023-12-04T11:29:29;15.00;;;5.63;;
71456;SDS011;59263;48.160;11.752;2023-12-04T11:31:55;15.10;;;5.57;;
71456;SDS011;59263;48.160;11.752;2023-12-04T11:34:20;15.27;;;5.17;;
71456;SDS011;59263;48.160;11.752;2023-12-04T11:36:46;12.57;;;4.80;;
71456;SDS011;59263;48.160;11.752;2023-12-04T11:39:12;16.63;;;6.13;;
71456;SDS011;59263;48.160;11.752;2023-12-04T11:41:38;14.25;;;6.18;;
71456;SDS011;59263;48.160;11.752;2023-12-04T11:44:09;14.00;;;5.57;;
71456;SDS011;59263;48.160;11.752;2023-12-04T11:46:38;14.23;;;6.32;;
71456;SDS011;59263;48.160;11.752;2023-12-04T11:51:53;21.48;;;6.22;;
71456;SDS011;59263;48.160;11.752;2023-12-04T11:54:21;19.63;;;6.90;;
71456;SDS011;59263;48.160;11.752;2023-12-04T11:59:51;19.85;;;7.78;;
71456;SDS011;59263;48.160;11.752;2023-12-04T12:02:17;20.90;;;8.17;;
71456;SDS011;59263;48.160;11.752;2023-12-04T12:04:43;17.58;;;7.25;;
71456;SDS011;59263;48.160;11.752;2023-12-04T12:07:10;19.70;;;8.02;;
71456;SDS011;59263;48.160;11.752;2023-12-04T12:09:36;18.30;;;7.95;;
71456;SDS011;59263;48.160;11.752;2023-12-04T12:12:03;19.40;;;7.00;;
71456;SDS011;59263;48.160;11.752;2023-12-04T12:14:29;17.57;;;6.73;;
71456;SDS011;59263;48.160;11.752;2023-12-04T12:16:55;12.98;;;5.63;;
71456;SDS011;59263;48.160;11.752;2023-12-04T12:19:20;19.02;;;6.20;;
71456;SDS011;59263;48.160;11.752;2023-12-04T12:21:47;14.27;;;6.17;;
71456;SDS011;59263;48.160;11.752;2023-12-04T12:24:14;14.18;;;6.38;;
71456;SDS011;59263;48.160;11.752;2023-12-04T12:26:39;18.33;;;6.75;;
71456;SDS011;59263;48.160;11.752;2023-12-04T12:29:05;13.13;;;5.87;;
71456;SDS011;59263;48.160;11.752;2023-12-04T12:31:31;16.35;;;6.10;;
71456;SDS011;59263;48.160;11.752;2023-12-04T12:33:57;16.13;;;7.30;;
71456;SDS011;59263;48.160;11.752;2023-12-04T12:36:22;15.33;;;6.43;;
71456;SDS011;59263;48.160;11.752;2023-12-04T12:38:48;15.60;;;6.73;;
71456;SDS011;59263;48.160;11.752;2023-12-04T12:41:16;26.20;;;6.43;;
71456;SDS011;59263;48.160;11.752;2023-12-04T12:43:42;15.43;;;6.47;;
71456;SDS011;59263;48.160;11.752;2023-12-04T12:46:07;23.73;;;7.30;;
71456;SDS011;59263;48.160;11.752;2023-12-04T12:48:33;14.75;;;5.88;;
71456;SDS011;59263;48.160;11.752;2023-12-04T12:50:58;14.57;;;5.80;;
71456;SDS011;59263;48.160;11.752;2023-12-04T12:53:23;15.50;;;6.37;;
71456;SDS011;59263;48.160;11.752;2023-12-04T12:55:49;17.80;;;6.70;;
71456;SDS011;59263;48.160;11.752;2023-12-04T12:58:14;16.60;;;7.23;;
71456;SDS011;59263;48.160;11.752;2023-12-04T13:00:45;17.30;;;7.38;;
71456;SDS011;59263;48.160;11.752;2023-12-04T13:03:15;17.23;;;7.25;;
71456;SDS011;59263;48.160;11.752;2023-12-04T13:05:43;22.02;;;6.38;;
71456;SDS011;59263;48.160;11.752;2023-12-04T13:08:09;19.17;;;6.93;;
71456;SDS011;59263;48.160;11.752;2023-12-04T13:10:36;17.30;;;5.10;;
71456;SDS011;59263;48.160;11.752;2023-12-04T13:13:02;15.70;;;6.13;;
71456;SDS011;59263;48.160;11.752;2023-12-04T13:15:27;16.93;;;7.10;;
71456;SDS011;59263;48.160;11.752;2023-12-04T13:17:52;19.23;;;7.13;;
71456;SDS011;59263;48.160;11.752;2023-12-04T13:20:18;18.60;;;7.67;;
71456;SDS011;59263;48.160;11.752;2023-12-04T13:22:43;19.93;;;7.43;;
71456;SDS011;59263;48.160;11.752;2023-12-04T13:25:09;17.27;;;6.77;;
71456;SDS011;59263;48.160;11.752;2023-12-04T13:27:36;19.90;;;7.30;;
71456;SDS011;59263;48.160;11.752;2023-12-04T13:30:07;17.85;;;6.90;;
71456;SDS011;59263;48.160;11.752;2023-12-04T13:32:33;18.65;;;7.03;;
71456;SDS011;59263;48.160;11.752;2023-12-04T13:35:00;19.50;;;8.20;;
71456;SDS011;59263;48.160;11.752;2023-12-04T13:37:26;16.00;;;6.22;;
71456;SDS011;59263;48.160;11.752;2023-12-04T13:39:53;16.17;;;7.15;;
71456;SDS011;59263;48.160;11.752;2023-12-04T13:42:23;18.40;;;6.93;;
71456;SDS011;59263;48.160;11.752;2023-12-04T13:45:08;15.88;;;6.45;;
71456;SDS011;59263;48.160;11.752;2023-12-04T13:47:37;16.17;;;6.70;;
71456;SDS011;59263;48.160;11.752;2023-12-04T13:50:06;18.13;;;6.65;;
71456;SDS011;59263;48.160;11.752;2023-12-04T13:52:35;17.73;;;6.65;;
71456;SDS011;59263;48.160;11.752;2023-12-04T13:55:02;16.43;;;7.13;;
71456;SDS011;59263;48.160;11.752;2023-12-04T13:57:36;19.08;;;7.75;;
71456;SDS011;59263;48.160;11.752;2023-12-04T14:00:09;20.85;;;7.38;;
71456;SDS011;59263;48.160;11.752;2023-12-04T14:02:35;20.30;;;8.13;;
71456;SDS011;59263;48.160;11.752;2023-12-04T14:05:02;19.57;;;7.20;;
71456;SDS011;59263;48.160;11.752;2023-12-04T14:07:28;19.33;;;8.68;;
71456;SDS011;59263;48.160;11.752;2023-12-04T14:09:53;21.77;;;8.73;;
71456;SDS011;59263;48.160;11.752;2023-12-04T14:12:19;19.67;;;8.60;;
71456;SDS011;59263;48.160;11.752;2023-12-04T14:14:44;18.70;;;8.23;;
71456;SDS011;59263;48.160;11.752;2023-12-04T14:17:09;28.00;;;10.23;;
71456;SDS011;59263;48.160;11.752;2023-12-04T14:19:36;19.07;;;8.63;;
71456;SDS011;59263;48.160;11.752;2023-12-04T14:22:04;22.33;;;8.88;;
71456;SDS011;59263;48.160;11.752;2023-12-04T14:24:29;25.85;;;10.35;;
71456;SDS011;59263;48.160;11.752;2023-12-04T14:26:55;32.60;;;11.97;;